Etusivu
METAR-TAF:

METAR-TAF

Lentoasemat :

Lansing Municipal Airport

Lansing, Illinois, Yhdysvallat

Leveyspiiri: 41-32-24N, Pituuspiiri: 087-31-56W, korkeus merenpinnasta: 188 m

Tämänhetkinen sää

Tämä raportti tehtiin 17 minuuttia sitten, kello 04.35 UTC
Tuuli 9 kn etelästä/lounaasta
Lämpötila 23°C
Kosteus 89%
Ilmanpaine 1013 hPa
Näkyvyys: 16.1 km
selkeää

METAR: KIGQ 250435Z AUTO 20009KT 10SM CLR 23/21 A2991 RMK AO2 T02320206

Aika: 23:52 (04:52 UTC)


TAF: puuttuu

Säähavainnot ja -ennusteet yli 4000 lentoasemalta (METAR- ja TAF-raportit).

Käytössä olevat sääasemat on merkitty karttaan keltaisilla ja punaisilla pisteillä.

Aseta hiiri pisteen päälle nähdäksesi sääaseman nimen.

Klikkaa sitten nähdäksesi säähavainnot ja -ennusteet.

Kartan vaihtaminen: klikkaa mustalla rastilla varustettuja vihreitä pisteitä, niin voit zoomata sisään; viivalla varustettua vihreää pistettä, niin voit zoomata ulos tai vihreitä nuolia, niin pääset viereisille kartoille.


METAR-TAF: